Time;durP1;ratioP1;P1;durP2;ratioP2;P2;SDS_P1;SDS_P2;PMS_P1;PMS_P2;Temp;Humidity;BMP_temperature;BMP_pressure;BME280_temperature;BME280_humidity;BME280_pressure;Samples;Min_cycle;Max_cycle;Signal;HPM_P1;HPM_P2
2024/04/10 00:01:35;;;;;;;3.90;1.67;;;12.60;59.50;;;;;;5407945;26;20051;-54
2024/04/10 00:04:20;;;;;;;6.28;1.73;;;12.50;59.40;;;;;;5405721;26;20013;-56
2024/04/10 00:07:05;;;;;;;4.68;1.38;;;12.50;59.50;;;;;;5393795;26;20617;-52
2024/04/10 00:09:50;;;;;;;11.18;2.60;;;12.50;59.60;;;;;;5414242;26;20026;-53
2024/04/10 00:12:35;;;;;;;6.05;1.58;;;12.40;59.50;;;;;;5403828;26;20087;-53
2024/04/10 00:15:20;;;;;;;4.53;2.10;;;12.40;59.50;;;;;;5392614;26;20010;-54
2024/04/10 00:18:04;;;;;;;6.45;1.67;;;12.50;59.90;;;;;;5397308;26;20461;-51
2024/04/10 00:20:49;;;;;;;6.95;2.53;;;12.40;59.70;;;;;;5408295;26;20217;-50
2024/04/10 00:23:34;;;;;;;8.02;2.22;;;12.40;59.80;;;;;;5398657;26;20022;-52
2024/04/10 00:26:18;;;;;;;8.38;1.60;;;12.40;59.90;;;;;;5404781;26;20018;-53
2024/04/10 00:29:04;;;;;;;6.70;1.85;;;12.30;59.70;;;;;;5418361;26;20080;-52
2024/04/10 00:31:53;;;;;;;5.35;1.40;;;12.30;59.80;;;;;;5420526;26;20014;-50
2024/04/10 00:34:38;;;;;;;4.72;1.50;;;12.30;59.90;;;;;;5397606;26;20011;-51
2024/04/10 00:37:22;;;;;;;8.82;2.15;;;12.30;59.90;;;;;;5400005;26;20068;-52
2024/04/10 00:40:08;;;;;;;8.57;2.25;;;12.30;60.00;;;;;;5397641;26;20488;-50
2024/04/10 00:42:53;;;;;;;6.10;1.73;;;12.30;60.00;;;;;;5397541;26;20368;-54
2024/04/10 00:45:40;;;;;;;9.18;1.80;;;12.30;60.10;;;;;;5396927;26;20061;-52
2024/04/10 00:48:25;;;;;;;4.90;1.80;;;12.30;60.10;;;;;;5398901;26;20006;-55
2024/04/10 00:51:12;;;;;;;5.30;1.30;;;12.30;60.20;;;;;;5376799;26;20346;-52
2024/04/10 00:53:58;;;;;;;5.20;2.05;;;12.30;60.20;;;;;;5399301;26;20017;-60
2024/04/10 00:56:43;;;;;;;5.07;2.20;;;12.30;60.30;;;;;;5390910;25;20349;-54
2024/04/10 00:59:28;;;;;;;8.40;1.48;;;12.30;60.30;;;;;;5390303;26;20038;-52
2024/04/10 01:02:13;;;;;;;5.68;1.83;;;12.30;60.40;;;;;;5411995;26;20083;-54
2024/04/10 01:04:58;;;;;;;6.57;1.45;;;12.30;60.50;;;;;;5387830;26;20010;-54
2024/04/10 01:07:44;;;;;;;9.07;1.77;;;12.30;60.50;;;;;;5396893;26;20009;-52
2024/04/10 01:10:28;;;;;;;5.53;1.85;;;12.30;60.50;;;;;;5403864;26;20006;-51
2024/04/10 01:13:14;;;;;;;7.05;2.40;;;12.30;60.60;;;;;;5410345;26;20080;-51
2024/04/10 01:15:59;;;;;;;8.38;1.55;;;12.30;60.60;;;;;;5398680;25;20108;-53
2024/04/10 01:18:44;;;;;;;5.95;1.60;;;12.30;60.60;;;;;;5411959;26;20049;-51
2024/04/10 01:21:29;;;;;;;4.90;1.23;;;12.40;60.80;;;;;;5387361;26;20077;-52
2024/04/10 01:24:14;;;;;;;6.68;2.35;;;12.30;60.70;;;;;;5380600;26;20014;-50
2024/04/10 01:26:59;;;;;;;5.82;1.77;;;12.40;60.90;;;;;;5396424;26;20653;-55
2024/04/10 01:29:44;;;;;;;6.60;1.98;;;12.40;60.90;;;;;;5409946;26;20077;-54
2024/04/10 01:32:29;;;;;;;6.03;1.50;;;12.40;60.90;;;;;;5386618;26;20004;-53
2024/04/10 01:35:14;;;;;;;9.60;2.03;;;12.40;60.90;;;;;;5392711;26;20014;-51
2024/04/10 01:37:58;;;;;;;5.70;1.70;;;12.40;60.90;;;;;;5389481;26;20065;-52
2024/04/10 01:40:43;;;;;;;6.07;1.58;;;12.50;61.10;;;;;;5398678;26;20828;-53
2024/04/10 01:43:29;;;;;;;3.72;1.40;;;12.50;61.00;;;;;;5404043;25;20440;-52
2024/04/10 01:46:14;;;;;;;7.72;1.80;;;12.50;61.00;;;;;;5396455;26;20302;-54
2024/04/10 01:49:00;;;;;;;6.72;1.63;;;12.50;61.00;;;;;;5410537;26;20520;-54
2024/04/10 01:51:44;;;;;;;6.35;1.83;;;12.50;61.10;;;;;;5370390;26;20023;-53
2024/04/10 01:54:30;;;;;;;7.45;1.83;;;12.50;61.10;;;;;;5381018;26;20010;-52
2024/04/10 01:57:15;;;;;;;4.13;1.38;;;12.50;61.10;;;;;;5393287;26;20014;-54
2024/04/10 02:00:00;;;;;;;8.90;1.70;;;12.50;61.10;;;;;;5390127;26;20022;-52
2024/04/10 02:02:48;;;;;;;3.40;1.25;;;12.60;61.30;;;;;;5392931;26;20029;-56
2024/04/10 02:05:33;;;;;;;5.03;1.38;;;12.50;61.20;;;;;;5386072;26;20556;-56
2024/04/10 02:08:18;;;;;;;3.42;0.90;;;12.50;61.20;;;;;;5389354;26;20084;-52
2024/04/10 02:11:22;;;;;;;5.25;1.80;;;12.50;61.20;;;;;;5383867;25;20650;-54
2024/04/10 02:14:07;;;;;;;8.48;1.80;;;12.50;61.20;;;;;;5385476;26;20075;-52
2024/04/10 02:16:52;;;;;;;5.68;1.33;;;12.50;61.20;;;;;;5416495;26;20517;-53
2024/04/10 02:19:37;;;;;;;3.97;1.30;;;12.50;61.30;;;;;;5382764;26;20018;-50
2024/04/10 02:22:21;;;;;;;5.35;1.70;;;12.50;61.30;;;;;;5390761;26;20006;-52
2024/04/10 02:25:06;;;;;;;7.32;2.45;;;12.50;61.40;;;;;;5406665;26;20559;-53
2024/04/10 02:27:51;;;;;;;5.68;1.23;;;12.50;61.40;;;;;;5406865;26;20017;-54
2024/04/10 02:30:35;;;;;;;9.02;2.05;;;12.50;61.40;;;;;;5393481;26;20445;-54
2024/04/10 02:33:20;;;;;;;8.10;2.20;;;12.50;61.40;;;;;;5393650;26;20022;-57
2024/04/10 02:36:07;;;;;;;4.28;1.67;;;12.40;61.30;;;;;;5399617;26;20014;-54
2024/04/10 02:38:51;;;;;;;7.95;1.70;;;12.50;61.50;;;;;;5393272;26;20321;-55
2024/04/10 02:41:36;;;;;;;5.60;1.42;;;12.40;61.30;;;;;;5400803;26;20049;-53
2024/04/10 02:44:20;;;;;;;9.15;1.80;;;12.40;61.30;;;;;;5389725;26;20142;-49
2024/04/10 02:47:05;;;;;;;6.18;1.55;;;12.40;61.30;;;;;;5374704;26;20011;-53
2024/04/10 02:49:50;;;;;;;6.55;1.25;;;12.40;61.30;;;;;;5382913;26;20574;-52
2024/04/10 02:52:35;;;;;;;5.57;1.60;;;12.40;61.30;;;;;;5410451;26;21998;-53
2024/04/10 02:55:20;;;;;;;4.72;1.23;;;12.40;61.40;;;;;;5380246;26;20018;-53
2024/04/10 02:58:05;;;;;;;8.75;1.48;;;12.40;61.40;;;;;;5401736;26;20075;-53
2024/04/10 03:00:51;;;;;;;3.85;1.75;;;12.40;61.40;;;;;;5394838;26;20532;-54
2024/04/10 03:03:37;;;;;;;3.65;1.00;;;12.40;61.30;;;;;;5409575;26;20021;-55
2024/04/10 03:06:21;;;;;;;4.60;1.30;;;12.40;61.30;;;;;;5400453;26;20011;-53
2024/04/10 03:09:07;;;;;;;9.82;2.85;;;12.40;61.30;;;;;;5394158;26;20088;-54
2024/04/10 03:11:51;;;;;;;5.97;2.25;;;12.40;61.30;;;;;;5395787;26;20010;-54
2024/04/10 03:14:38;;;;;;;5.60;1.58;;;12.40;61.30;;;;;;5405237;26;20043;-51
2024/04/10 03:17:22;;;;;;;5.30;1.48;;;12.40;61.30;;;;;;5407983;26;20095;-51
2024/04/10 03:20:08;;;;;;;5.95;2.10;;;12.40;61.30;;;;;;5364161;26;20011;-54
2024/04/10 03:22:53;;;;;;;4.50;1.30;;;12.30;61.20;;;;;;5356657;26;20014;-51
2024/04/10 03:25:39;;;;;;;4.95;1.40;;;12.30;61.20;;;;;;5362322;26;20779;-51
2024/04/10 03:28:23;;;;;;;5.30;2.20;;;12.30;61.30;;;;;;5366995;26;20103;-52
2024/04/10 03:31:08;;;;;;;6.85;1.50;;;12.30;61.30;;;;;;5373462;26;20308;-53
2024/04/10 03:33:52;;;;;;;4.88;1.55;;;12.30;61.30;;;;;;5348189;26;20011;-53
2024/04/10 03:36:38;;;;;;;5.20;1.50;;;12.20;61.20;;;;;;5354213;26;20102;-52
2024/04/10 03:39:23;;;;;;;6.03;1.27;;;12.20;61.20;;;;;;5353790;26;20016;-50
2024/04/10 03:42:08;;;;;;;6.85;1.30;;;12.20;61.30;;;;;;5353984;26;20011;-54
2024/04/10 03:44:53;;;;;;;4.70;1.30;;;12.10;61.10;;;;;;5364887;26;20130;-55
2024/04/10 03:47:38;;;;;;;5.20;1.88;;;12.10;61.20;;;;;;5365245;26;20552;-59
2024/04/10 03:50:23;;;;;;;9.38;1.83;;;12.10;61.20;;;;;;5367268;26;20500;-52
2024/04/10 03:53:08;;;;;;;8.00;2.40;;;12.20;61.50;;;;;;5359031;26;20559;-54
2024/04/10 03:55:53;;;;;;;6.18;1.55;;;12.10;61.40;;;;;;5347570;26;20013;-50
2024/04/10 03:58:38;;;;;;;5.15;1.25;;;12.10;61.40;;;;;;5358750;26;20385;-49
2024/04/10 04:01:22;;;;;;;8.20;1.65;;;12.10;61.40;;;;;;5414680;26;20098;-51
2024/04/10 04:04:07;;;;;;;6.18;1.60;;;12.10;61.40;;;;;;5400870;26;20068;-51
2024/04/10 04:06:53;;;;;;;4.82;1.55;;;12.10;61.50;;;;;;5409066;26;20017;-53
2024/04/10 04:09:37;;;;;;;6.45;1.52;;;12.00;61.30;;;;;;5411240;26;20018;-54
2024/04/10 04:12:22;;;;;;;6.82;1.60;;;12.10;61.50;;;;;;5401732;26;20439;-53
2024/04/10 04:15:07;;;;;;;5.90;1.98;;;12.00;61.40;;;;;;5391077;26;20014;-53
2024/04/10 04:17:52;;;;;;;3.47;1.50;;;12.00;61.40;;;;;;5402377;26;20446;-54
2024/04/10 04:20:37;;;;;;;6.35;1.05;;;12.00;61.40;;;;;;5397377;26;20547;-56
2024/04/10 04:23:21;;;;;;;4.28;1.20;;;12.00;61.50;;;;;;5393095;26;20014;-51
2024/04/10 04:26:08;;;;;;;7.25;1.85;;;12.00;61.50;;;;;;5418901;26;20005;-54
2024/04/10 04:28:54;;;;;;;4.07;1.25;;;12.00;61.50;;;;;;5399562;26;20535;-53
2024/04/10 04:31:39;;;;;;;6.32;1.85;;;12.00;61.60;;;;;;5397417;26;20006;-54
2024/04/10 04:34:24;;;;;;;5.20;1.27;;;12.00;61.60;;;;;;5408739;26;20074;-53
2024/04/10 04:37:09;;;;;;;4.90;1.02;;;12.00;61.60;;;;;;5402510;26;20832;-55
2024/04/10 04:39:54;;;;;;;5.75;1.33;;;12.10;61.90;;;;;;5377334;26;20010;-53
2024/04/10 04:42:38;;;;;;;7.65;2.50;;;12.10;61.90;;;;;;5385280;26;20583;-54
2024/04/10 04:45:23;;;;;;;6.25;1.40;;;12.10;61.90;;;;;;5402618;26;20011;-56
2024/04/10 04:48:10;;;;;;;5.22;2.25;;;12.10;61.90;;;;;;5381591;26;20015;-52
2024/04/10 04:50:54;;;;;;;5.95;1.92;;;12.10;62.00;;;;;;5386222;26;20045;-52
2024/04/10 04:53:39;;;;;;;6.47;1.88;;;12.10;62.00;;;;;;5393225;26;20108;-53
2024/04/10 04:56:24;;;;;;;5.88;1.30;;;12.10;62.00;;;;;;5372024;26;20447;-57
2024/04/10 04:59:10;;;;;;;8.57;3.10;;;12.10;62.00;;;;;;5414073;26;20009;-50
2024/04/10 05:01:55;;;;;;;4.55;1.80;;;12.10;62.10;;;;;;5380428;26;20006;-56
2024/04/10 05:05:00;;;;;;;8.38;1.65;;;12.10;62.10;;;;;;5370764;26;20461;-53
2024/04/10 05:07:46;;;;;;;4.50;1.42;;;12.10;62.10;;;;;;5375021;26;20011;-51
2024/04/10 05:10:31;;;;;;;9.10;1.15;;;12.20;62.30;;;;;;5387636;26;20084;-51
2024/04/10 05:14:51;;;;;;;4.18;1.15;;;12.20;62.30;;;;;;5497739;25;20783;-50
2024/04/10 05:17:46;;;;;;;5.10;1.45;;;12.20;62.20;;;;;;5477780;25;20036;-52
2024/04/10 05:20:31;;;;;;;6.30;1.33;;;12.20;62.30;;;;;;5470692;26;20082;-54
2024/04/10 05:23:15;;;;;;;6.00;1.30;;;12.20;62.30;;;;;;5450014;25;20010;-52
2024/04/10 05:26:02;;;;;;;6.47;1.42;;;12.20;62.30;;;;;;5470366;26;20008;-49
2024/04/10 05:28:47;;;;;;;4.53;1.10;;;12.20;62.40;;;;;;5456817;26;20009;-50
2024/04/10 05:31:32;;;;;;;3.83;1.77;;;12.30;62.60;;;;;;5462170;25;20105;-53
2024/04/10 05:34:17;;;;;;;4.20;1.05;;;12.30;62.60;;;;;;5458802;26;20091;-52
2024/04/10 05:37:01;;;;;;;7.63;1.38;;;12.30;62.60;;;;;;5464119;26;20016;-49
2024/04/10 05:39:47;;;;;;;7.45;1.10;;;12.40;62.70;;;;;;5471423;26;20013;-52
2024/04/10 05:42:34;;;;;;;6.03;1.00;;;12.40;62.70;;;;;;5472124;25;20115;-52
2024/04/10 05:45:18;;;;;;;6.63;1.25;;;12.40;63.30;;;;;;5462661;26;20397;-52
2024/04/10 05:48:03;;;;;;;6.28;1.23;;;12.40;62.70;;;;;;5476153;26;20588;-52
2024/04/10 05:50:54;;;;;;;5.28;1.13;;;12.50;62.90;;;;;;5458245;25;20046;-52
2024/04/10 05:53:39;;;;;;;4.15;1.20;;;12.50;63.00;;;;;;5466188;26;20261;-53
2024/04/10 05:56:24;;;;;;;5.35;1.30;;;12.60;63.50;;;;;;5452143;26;20016;-50
2024/04/10 05:59:11;;;;;;;6.72;1.33;;;12.70;63.80;;;;;;5462579;26;20342;-55
2024/04/10 06:01:56;;;;;;;12.00;3.10;;;12.70;63.80;;;;;;5470585;25;20558;-54
2024/04/10 06:04:41;;;;;;;5.70;1.65;;;12.80;63.70;;;;;;5459604;26;20008;-54
2024/04/10 06:07:26;;;;;;;4.22;1.13;;;12.80;63.30;;;;;;5465572;26;20013;-60
2024/04/10 06:10:12;;;;;;;4.57;1.52;;;12.80;63.20;;;;;;5430194;25;20066;-52
2024/04/10 06:12:57;;;;;;;8.25;1.92;;;12.80;63.00;;;;;;5460859;26;20009;-53
2024/04/10 06:15:41;;;;;;;8.85;1.40;;;12.80;62.90;;;;;;5469913;26;20431;-51
2024/04/10 06:18:26;;;;;;;4.82;1.38;;;12.90;62.90;;;;;;5464502;26;20084;-54
2024/04/10 06:21:11;;;;;;;5.07;1.77;;;12.90;62.80;;;;;;5477426;25;20088;-54
2024/04/10 06:23:56;;;;;;;9.07;1.88;;;12.90;62.60;;;;;;5464868;26;20423;-52
2024/04/10 06:26:40;;;;;;;6.43;1.40;;;12.90;62.50;;;;;;5442793;26;20025;-56
2024/04/10 06:29:24;;;;;;;8.05;1.75;;;12.90;62.40;;;;;;5447651;25;20621;-54
2024/04/10 06:32:09;;;;;;;6.68;2.67;;;12.90;62.30;;;;;;5446448;26;20375;-51
2024/04/10 06:34:54;;;;;;;7.65;1.70;;;12.90;62.10;;;;;;5445343;26;20075;-55
2024/04/10 06:37:39;;;;;;;5.40;1.73;;;12.90;62.00;;;;;;5442252;26;20021;-53
2024/04/10 06:40:24;;;;;;;5.07;1.38;;;12.90;61.90;;;;;;5431252;26;20399;-54
2024/04/10 06:43:10;;;;;;;4.45;1.35;;;12.90;61.80;;;;;;5432066;26;20509;-52
2024/04/10 06:46:08;;;;;;;3.42;1.10;;;12.90;61.70;;;;;;5431897;26;20132;-52
2024/04/10 06:48:53;;;;;;;4.78;2.20;;;12.90;61.60;;;;;;5455938;26;20013;-57
2024/04/10 06:51:39;;;;;;;7.35;1.88;;;12.90;61.50;;;;;;5454287;26;20075;-55
2024/04/10 06:54:24;;;;;;;6.28;1.15;;;12.90;61.50;;;;;;5448443;26;20106;-54
2024/04/10 06:57:09;;;;;;;6.72;1.65;;;12.90;61.50;;;;;;5444494;26;20013;-54
2024/04/10 06:59:53;;;;;;;5.43;1.52;;;12.90;61.30;;;;;;5438558;26;20475;-55
2024/04/10 07:02:39;;;;;;;7.43;1.40;;;12.90;61.30;;;;;;5433160;26;20063;-50
2024/04/10 07:05:24;;;;;;;6.75;1.58;;;12.90;61.20;;;;;;5426931;26;20313;-49
2024/04/10 07:08:09;;;;;;;6.97;1.83;;;12.90;61.20;;;;;;5450705;26;20013;-50
2024/04/10 07:10:53;;;;;;;5.95;1.38;;;12.90;61.10;;;;;;5434938;26;20488;-49
2024/04/10 07:13:53;;;;;;;6.90;2.03;;;12.90;61.00;;;;;;5437659;26;20538;-52
2024/04/10 07:16:38;;;;;;;4.53;1.00;;;12.90;60.90;;;;;;5443160;26;20106;-53
2024/04/10 07:19:23;;;;;;;6.90;1.45;;;13.00;61.00;;;;;;5442868;25;20088;-53
2024/04/10 07:22:09;;;;;;;4.63;1.73;;;13.00;60.90;;;;;;5429238;26;20072;-50
2024/04/10 07:24:53;;;;;;;4.20;1.30;;;13.00;60.80;;;;;;5443150;26;20024;-54
2024/04/10 07:27:38;;;;;;;4.88;1.63;;;13.10;60.80;;;;;;5446162;26;20865;-54
2024/04/10 07:30:23;;;;;;;5.25;1.77;;;13.20;60.80;;;;;;5433351;26;20059;-54
2024/04/10 07:33:07;;;;;;;9.07;2.28;;;13.30;60.80;;;;;;5429873;26;20360;-56
2024/04/10 07:35:52;;;;;;;7.38;2.58;;;13.40;60.80;;;;;;5444012;26;20243;-55
2024/04/10 07:38:37;;;;;;;6.53;1.65;;;13.50;60.70;;;;;;5411590;26;20008;-55
2024/04/10 07:41:23;;;;;;;5.00;1.33;;;13.70;60.80;;;;;;5450557;26;20004;-56
2024/04/10 07:44:08;;;;;;;4.38;1.30;;;13.80;60.60;;;;;;5457738;26;20013;-56
2024/04/10 07:46:53;;;;;;;9.60;2.35;;;14.00;60.70;;;;;;5433646;26;20420;-56
2024/04/10 07:49:38;;;;;;;6.10;1.63;;;14.10;60.60;;;;;;5442731;26;20016;-55
2024/04/10 07:52:22;;;;;;;4.45;1.40;;;14.10;60.50;;;;;;5426572;26;20460;-55
2024/04/10 07:55:07;;;;;;;4.13;1.05;;;14.10;60.40;;;;;;5437395;26;20041;-55
2024/04/10 07:57:52;;;;;;;6.22;1.20;;;14.10;60.40;;;;;;5435132;26;20004;-56
2024/04/10 08:00:37;;;;;;;8.40;1.58;;;14.10;60.40;;;;;;5424252;26;20018;-58
2024/04/10 08:03:26;;;;;;;5.68;1.77;;;14.20;60.50;;;;;;5452557;26;20016;-57
2024/04/10 08:06:12;;;;;;;4.10;1.42;;;14.10;60.30;;;;;;5426078;26;20018;-55
2024/04/10 08:08:57;;;;;;;3.95;1.20;;;14.20;60.40;;;;;;5423859;26;20830;-55
2024/04/10 08:11:44;;;;;;;9.45;2.30;;;14.20;60.40;;;;;;5430752;26;20071;-55
2024/04/10 08:14:28;;;;;;;6.95;1.73;;;14.20;60.30;;;;;;5432223;26;20075;-56
2024/04/10 08:17:13;;;;;;;4.88;1.45;;;14.20;60.30;;;;;;5437552;26;20016;-56
2024/04/10 08:19:58;;;;;;;4.15;1.55;;;14.30;60.40;;;;;;5431663;26;20009;-56
2024/04/10 08:22:44;;;;;;;5.20;1.33;;;14.30;60.30;;;;;;5435662;26;20025;-57
2024/04/10 08:25:31;;;;;;;5.57;1.50;;;14.40;60.30;;;;;;5430595;26;20009;-56
2024/04/10 08:28:17;;;;;;;5.40;1.70;;;14.50;60.30;;;;;;5426638;26;20352;-61
2024/04/10 08:31:02;;;;;;;5.30;2.10;;;14.60;60.30;;;;;;5439465;26;20013;-57
2024/04/10 08:33:47;;;;;;;5.43;1.75;;;14.60;60.10;;;;;;5430851;26;20374;-57
2024/04/10 08:36:33;;;;;;;5.50;1.40;;;14.70;60.10;;;;;;5428792;26;20016;-56
2024/04/10 08:39:18;;;;;;;6.00;1.58;;;14.80;60.10;;;;;;5453085;26;20135;-57
2024/04/10 08:42:04;;;;;;;5.35;1.60;;;14.80;60.10;;;;;;5434192;26;20028;-57
2024/04/10 08:44:51;;;;;;;6.30;1.70;;;14.90;60.10;;;;;;5434452;26;20567;-57
2024/04/10 08:47:37;;;;;;;7.13;1.58;;;15.00;60.10;;;;;;5439906;26;20695;-57
2024/04/10 08:50:24;;;;;;;4.88;1.58;;;15.00;60.00;;;;;;5455803;26;20019;-57
2024/04/10 08:53:12;;;;;;;5.30;1.50;;;15.10;60.10;;;;;;5429756;26;20083;-57
2024/04/10 08:55:57;;;;;;;5.18;2.28;;;15.10;59.90;;;;;;5438410;26;20017;-57
2024/04/10 08:58:43;;;;;;;5.00;1.63;;;15.20;59.90;;;;;;5435157;26;20078;-57
2024/04/10 09:01:37;;;;;;;3.90;1.52;;;15.30;60.00;;;;;;5446233;26;20014;-56
2024/04/10 09:04:23;;;;;;;2.50;1.10;;;15.30;59.90;;;;;;5408710;26;20121;-57
2024/04/10 09:07:07;;;;;;;4.35;1.48;;;15.40;60.00;;;;;;5443919;26;20800;-57
2024/04/10 09:09:52;;;;;;;5.43;1.38;;;15.50;60.00;;;;;;5445775;26;20021;-57
2024/04/10 09:12:37;;;;;;;5.68;2.17;;;15.60;60.00;;;;;;5443671;26;20055;-58
2024/04/10 09:15:22;;;;;;;4.40;1.10;;;15.70;60.10;;;;;;5436153;26;20025;-58
2024/04/10 09:18:07;;;;;;;6.90;1.55;;;15.70;59.90;;;;;;5440455;26;20329;-55
2024/04/10 09:21:08;;;;;;;7.78;1.52;;;15.80;59.90;;;;;;5422933;26;20021;-57
2024/04/10 09:23:59;;;;;;;4.97;1.58;;;15.90;60.00;;;;;;5436376;26;20090;-55
2024/04/10 09:26:48;;;;;;;2.65;1.15;;;16.00;60.60;;;;;;5439653;26;20256;-57
2024/04/10 09:29:33;;;;;;;6.75;1.95;;;16.00;60.00;;;;;;5431948;26;20046;-58
2024/04/10 09:32:19;;;;;;;7.50;1.77;;;16.00;59.80;;;;;;5441866;26;20421;-55
2024/04/10 09:35:06;;;;;;;4.82;1.77;;;16.10;59.90;;;;;;5424752;26;20013;-53
2024/04/10 09:37:54;;;;;;;6.65;2.35;;;16.10;59.80;;;;;;5454422;26;20020;-52
2024/04/10 09:40:46;;;;;;;5.30;1.95;;;16.10;59.80;;;;;;5445394;26;20017;-51
2024/04/10 09:43:32;;;;;;;5.60;1.55;;;16.10;59.70;;;;;;5446666;26;20447;-51
2024/04/10 09:46:21;;;;;;;5.22;1.85;;;16.20;59.80;;;;;;5429972;26;20495;-51
2024/04/10 09:49:13;;;;;;;5.07;1.77;;;16.20;59.80;;;;;;5430046;26;20857;-52
2024/04/10 09:51:59;;;;;;;4.20;1.33;;;16.30;59.90;;;;;;5444142;26;20014;-50
2024/04/10 09:54:45;;;;;;;3.38;1.63;;;16.30;59.90;;;;;;5429065;26;20454;-49
2024/04/10 09:57:30;;;;;;;5.85;1.75;;;16.40;59.90;;;;;;5453641;26;20504;-53
2024/04/10 10:00:16;;;;;;;6.63;2.00;;;16.50;60.00;;;;;;5445765;26;20025;-52
2024/04/10 10:03:05;;;;;;;5.53;1.60;;;16.60;60.10;;;;;;5453119;26;20338;-52
2024/04/10 10:06:03;;;;;;;4.82;1.83;;;16.70;60.10;;;;;;5434114;26;20388;-53
2024/04/10 10:08:53;;;;;;;2.90;1.27;;;16.70;60.10;;;;;;5430932;26;20476;-55
2024/04/10 10:11:39;;;;;;;5.28;1.55;;;16.80;60.10;;;;;;5435999;26;20005;-54
2024/04/10 10:14:27;;;;;;;2.90;1.25;;;16.90;60.10;;;;;;5436993;26;20356;-54
2024/04/10 10:17:12;;;;;;;3.92;1.23;;;16.90;60.00;;;;;;5443229;26;20431;-55
2024/04/10 10:19:58;;;;;;;4.10;1.63;;;17.00;60.00;;;;;;5422084;26;20014;-56
2024/04/10 10:22:43;;;;;;;4.18;1.10;;;17.10;60.10;;;;;;5424523;26;20050;-56
2024/04/10 10:25:28;;;;;;;4.55;1.55;;;17.10;60.00;;;;;;5448308;26;20005;-57
2024/04/10 10:28:13;;;;;;;5.43;1.40;;;17.10;59.90;;;;;;5449439;26;20159;-57
2024/04/10 10:31:19;;;;;;;4.47;1.38;;;17.20;60.00;;;;;;5444567;26;20882;-56
2024/04/10 10:34:10;;;;;;;4.00;1.10;;;17.20;59.90;;;;;;5440719;26;20001;-58
2024/04/10 10:37:06;;;;;;;2.53;0.80;;;17.20;59.80;;;;;;5435703;26;20585;-58
2024/04/10 10:39:53;;;;;;;3.30;0.98;;;17.20;59.80;;;;;;5442703;26;20090;-56
2024/04/10 10:42:37;;;;;;;4.25;0.98;;;17.20;59.80;;;;;;5452557;26;20082;-56
2024/04/10 10:45:22;;;;;;;2.92;1.10;;;17.20;59.70;;;;;;5445828;26;20033;-57
2024/04/10 10:48:14;;;;;;;2.95;0.80;;;17.20;59.70;;;;;;5429625;26;20013;-50
2024/04/10 10:50:59;;;;;;;3.55;0.80;;;17.20;59.70;;;;;;5421202;26;20045;-47
2024/04/10 10:53:45;;;;;;;3.67;0.93;;;17.20;59.70;;;;;;5444554;26;20020;-46
2024/04/10 10:56:32;;;;;;;1.65;1.10;;;17.10;59.50;;;;;;5455513;26;20479;-49
2024/04/10 10:59:17;;;;;;;2.70;0.95;;;17.10;59.50;;;;;;5445255;26;20042;-48
2024/04/10 11:02:15;;;;;;;3.67;1.00;;;17.10;59.50;;;;;;5443322;26;20072;-47
2024/04/10 11:05:08;;;;;;;2.78;0.88;;;17.10;59.60;;;;;;5448733;26;20311;-46
2024/04/10 11:07:57;;;;;;;1.98;0.80;;;17.10;60.20;;;;;;5442737;26;20013;-47
2024/04/10 11:10:46;;;;;;;2.22;0.90;;;17.20;59.70;;;;;;5431366;26;20060;-49
2024/04/10 11:13:31;;;;;;;2.88;0.80;;;17.30;59.80;;;;;;5440247;26;20005;-55
2024/04/10 11:16:27;;;;;;;3.58;0.77;;;17.40;59.80;;;;;;5453784;26;20006;-52
2024/04/10 11:19:12;;;;;;;3.08;0.80;;;17.50;59.80;;;;;;5455619;26;20012;-49
2024/04/10 11:21:58;;;;;;;1.48;0.60;;;17.60;59.80;;;;;;5431488;26;20067;-48
2024/04/10 11:24:42;;;;;;;3.40;0.60;;;17.70;59.80;;;;;;5435599;26;20009;-52
2024/04/10 11:27:28;;;;;;;4.13;1.42;;;17.80;59.90;;;;;;5445004;26;20025;-50
2024/04/10 11:30:13;;;;;;;2.83;0.60;;;17.90;60.00;;;;;;5444702;26;20066;-49
2024/04/10 11:32:58;;;;;;;1.77;0.85;;;17.90;59.90;;;;;;5449735;26;20017;-52
2024/04/10 11:35:43;;;;;;;1.98;0.60;;;17.90;59.80;;;;;;5433989;26;20068;-50
2024/04/10 11:38:28;;;;;;;1.52;0.50;;;18.00;59.90;;;;;;5433844;26;20067;-54
2024/04/10 11:41:14;;;;;;;1.83;0.90;;;18.20;60.10;;;;;;5428410;26;20083;-51
2024/04/10 11:43:59;;;;;;;0.93;0.43;;;18.30;60.10;;;;;;5440207;26;20005;-54
2024/04/10 11:46:46;;;;;;;0.77;0.47;;;18.40;60.10;;;;;;5444240;26;20085;-51
2024/04/10 11:49:31;;;;;;;1.55;1.02;;;18.50;60.10;;;;;;5437210;26;20502;-53
2024/04/10 11:52:16;;;;;;;1.50;0.40;;;18.50;60.60;;;;;;5443783;26;20185;-52
2024/04/10 11:55:00;;;;;;;1.58;0.55;;;18.60;60.10;;;;;;5437349;26;20013;-54
2024/04/10 11:57:45;;;;;;;0.90;0.35;;;18.60;60.10;;;;;;5446030;26;20497;-55
2024/04/10 12:00:40;;;;;;;1.42;0.40;;;18.50;60.00;;;;;;5444566;26;20013;-57
2024/04/10 12:03:24;;;;;;;1.48;0.40;;;18.50;60.00;;;;;;5452579;26;20106;-57
2024/04/10 12:06:09;;;;;;;2.47;0.90;;;18.60;60.20;;;;;;5450963;26;20008;-56
2024/04/10 12:08:54;;;;;;;0.98;0.60;;;18.70;60.30;;;;;;5440902;26;20039;-56
2024/04/10 12:11:38;;;;;;;1.65;0.52;;;18.70;60.20;;;;;;5458333;26;20017;-54
2024/04/10 12:14:23;;;;;;;0.88;0.47;;;18.80;60.20;;;;;;5448700;26;20738;-54
2024/04/10 12:17:08;;;;;;;0.65;0.25;;;18.80;60.10;;;;;;5456941;26;20009;-58
2024/04/10 12:19:53;;;;;;;1.30;0.32;;;18.80;60.00;;;;;;5434269;26;20378;-66
2024/04/10 12:22:38;;;;;;;0.73;0.30;;;18.90;60.10;;;;;;5439693;26;20009;-63
2024/04/10 12:25:24;;;;;;;0.70;0.30;;;18.90;60.10;;;;;;5430545;26;20018;-54
2024/04/10 12:28:09;;;;;;;0.93;0.30;;;18.80;60.00;;;;;;5439142;26;20070;-57
2024/04/10 12:30:53;;;;;;;0.65;0.40;;;18.80;60.00;;;;;;5428998;26;20091;-57
2024/04/10 12:33:38;;;;;;;0.70;0.50;;;18.80;59.90;;;;;;5447262;26;20020;-57
2024/04/10 12:39:50;;;;;;;0.85;0.30;;;18.80;59.80;;;;;;5349562;26;20023;-56
2024/04/10 12:42:35;;;;;;;1.38;0.35;;;18.70;59.70;;;;;;5339124;26;20107;-57
2024/04/10 12:45:20;;;;;;;0.35;0.30;;;18.70;59.70;;;;;;5414942;26;20010;-58
2024/04/10 12:48:09;;;;;;;0.38;0.20;;;18.70;59.70;;;;;;5445228;26;20543;-57
2024/04/10 12:50:54;;;;;;;1.30;0.60;;;18.60;59.60;;;;;;5436145;26;20021;-56
2024/04/10 12:53:39;;;;;;;0.40;0.40;;;18.60;59.60;;;;;;5432269;26;20347;-57
2024/04/10 12:56:24;;;;;;;2.85;1.08;;;18.50;59.50;;;;;;5443817;26;20508;-57
2024/04/10 12:59:11;;;;;;;1.52;0.40;;;18.60;59.70;;;;;;5451924;26;20480;-56
2024/04/10 13:01:58;;;;;;;0.55;0.30;;;18.60;59.70;;;;;;5450630;26;20021;-56
2024/04/10 13:04:42;;;;;;;0.93;0.43;;;18.60;59.60;;;;;;5447530;26;20017;-56
2024/04/10 13:07:28;;;;;;;2.40;0.82;;;18.60;59.50;;;;;;5437817;26;20118;-57
2024/04/10 13:10:12;;;;;;;0.80;0.38;;;18.70;59.70;;;;;;5445167;26;20565;-57
2024/04/10 13:12:57;;;;;;;0.82;0.25;;;18.70;59.70;;;;;;5439815;26;20257;-57
2024/04/10 13:15:42;;;;;;;0.50;0.30;;;18.80;59.70;;;;;;5444717;26;20040;-58
2024/04/10 13:18:27;;;;;;;1.65;0.40;;;19.00;59.80;;;;;;5448978;26;20720;-58
2024/04/10 13:21:12;;;;;;;1.10;0.22;;;19.00;59.60;;;;;;5435975;26;20079;-58
2024/04/10 13:23:58;;;;;;;1.23;0.30;;;19.10;59.70;;;;;;5437111;26;20028;-57
2024/04/10 13:26:44;;;;;;;0.60;0.60;;;19.00;59.40;;;;;;5430903;26;20082;-59
2024/04/10 13:29:28;;;;;;;0.30;0.10;;;19.10;59.50;;;;;;5436284;26;20431;-57
2024/04/10 13:32:13;;;;;;;0.98;0.40;;;19.10;59.50;;;;;;5441059;26;20009;-56
2024/04/10 13:34:58;;;;;;;1.00;0.30;;;19.10;59.40;;;;;;5438216;26;20525;-58
2024/04/10 13:37:43;;;;;;;0.47;0.10;;;19.10;59.40;;;;;;5439798;26;20050;-58
2024/04/10 13:40:28;;;;;;;0.98;0.40;;;19.10;59.40;;;;;;5423164;26;20076;-60
2024/04/10 13:43:13;;;;;;;0.50;0.35;;;19.00;59.20;;;;;;5441454;26;20009;-57
2024/04/10 13:45:58;;;;;;;0.30;0.28;;;18.90;59.10;;;;;;5442832;26;20107;-56
2024/04/10 13:48:44;;;;;;;0.80;0.30;;;18.90;59.10;;;;;;5451423;26;20024;-67
2024/04/10 13:51:29;;;;;;;0.52;0.32;;;18.80;59.00;;;;;;5461091;26;20113;-57
2024/04/10 13:54:14;;;;;;;1.05;0.52;;;18.80;59.10;;;;;;5427235;26;20740;-57
2024/04/10 13:56:58;;;;;;;0.85;0.40;;;18.80;59.10;;;;;;5439160;26;20065;-58
2024/04/10 13:59:45;;;;;;;1.63;0.20;;;18.80;59.00;;;;;;5447052;26;20064;-57
2024/04/10 14:02:30;;;;;;;0.85;0.30;;;18.80;59.00;;;;;;5452151;26;20414;-57
2024/04/10 14:05:15;;;;;;;0.50;0.40;;;18.80;58.90;;;;;;5457970;26;20013;-59
2024/04/10 14:08:00;;;;;;;1.45;0.77;;;18.90;59.10;;;;;;5439801;26;20178;-56
2024/04/10 14:10:45;;;;;;;0.75;0.30;;;19.00;59.20;;;;;;5443981;26;20084;-55
2024/04/10 14:13:30;;;;;;;0.45;0.43;;;19.10;59.20;;;;;;5439440;26;20010;-58
2024/04/10 14:16:15;;;;;;;0.75;0.43;;;19.30;59.30;;;;;;5440314;26;20018;-58
2024/04/10 14:19:00;;;;;;;1.52;0.30;;;19.40;59.10;;;;;;5454777;26;20050;-58
2024/04/10 14:21:44;;;;;;;0.65;0.65;;;19.60;59.20;;;;;;5438707;26;20013;-57
2024/04/10 14:24:31;;;;;;;0.43;0.30;;;19.70;59.20;;;;;;5456071;26;20086;-56
2024/04/10 14:27:15;;;;;;;1.35;0.25;;;19.90;59.20;;;;;;5443264;26;20427;-57
2024/04/10 14:30:01;;;;;;;0.60;0.30;;;20.10;59.30;;;;;;5446950;26;20017;-57